createdAt,value
2018-10-18T00:00:10.024Z,100427.95
2018-10-18T00:02:39.640Z,100424.61
2018-10-18T00:05:09.947Z,100426.61
2018-10-18T00:07:39.640Z,100425.27
2018-10-18T00:10:09.778Z,100422.92
2018-10-18T00:12:39.436Z,100421.92
2018-10-18T00:15:09.512Z,100422.92
2018-10-18T00:17:44.228Z,100421.41
2018-10-18T00:20:14.530Z,100421.92
2018-10-18T00:22:44.771Z,100424.27
2018-10-18T00:25:14.808Z,100427.30
2018-10-18T00:27:44.480Z,100421.92
2018-10-18T00:30:15.099Z,100424.27
2018-10-18T00:32:45.290Z,100423.27
2018-10-18T00:35:14.992Z,100421.89
2018-10-18T00:37:44.880Z,100423.06
2018-10-18T00:40:14.579Z,100420.23
2018-10-18T00:42:44.244Z,100419.89
2018-10-18T00:45:13.908Z,100424.23
2018-10-18T00:47:43.588Z,100420.70
2018-10-18T00:50:13.375Z,100428.38
2018-10-18T00:52:42.980Z,100429.84
2018-10-18T00:55:12.908Z,100428.19
2018-10-18T00:57:42.672Z,100429.67
2018-10-18T01:00:12.869Z,100434.38
2018-10-18T01:02:42.553Z,100433.70
2018-10-18T01:05:12.247Z,100431.71
2018-10-18T01:07:41.976Z,100433.88
2018-10-18T01:10:11.655Z,100431.54
2018-10-18T01:12:41.474Z,100430.55
2018-10-18T01:15:11.116Z,100431.38
2018-10-18T01:17:40.764Z,100424.70
2018-10-18T01:20:10.523Z,100417.30
2018-10-18T01:22:40.172Z,100417.95
2018-10-18T01:25:09.848Z,100417.80
2018-10-18T01:27:39.552Z,100426.52
2018-10-18T01:30:09.368Z,100425.86
2018-10-18T01:32:39.005Z,100428.38
2018-10-18T01:35:08.769Z,100423.83
2018-10-18T01:37:38.436Z,100428.38
2018-10-18T01:40:08.141Z,100423.84
2018-10-18T01:42:37.797Z,100433.58
2018-10-18T01:45:07.480Z,100434.74
2018-10-18T01:47:37.157Z,100431.54
2018-10-18T01:50:07.870Z,100442.97
2018-10-18T01:52:37.544Z,100441.27
2018-10-18T01:55:07.972Z,100434.55
2018-10-18T01:57:37.656Z,100438.71
2018-10-18T02:00:08.559Z,100438.71
2018-10-18T02:02:38.263Z,100437.19
2018-10-18T02:05:08.052Z,100435.20
2018-10-18T02:07:37.704Z,100438.23
2018-10-18T02:10:07.559Z,100444.25
2018-10-18T02:12:37.240Z,100450.30
2018-10-18T02:15:09.464Z,100448.61
2018-10-18T02:17:39.255Z,100449.77
2018-10-18T02:20:10.050Z,100451.28
2018-10-18T02:22:40.241Z,100443.05
2018-10-18T02:25:10.021Z,100450.13
2018-10-18T02:27:39.648Z,100452.28
2018-10-18T02:30:09.518Z,100456.48
2018-10-18T02:32:39.125Z,100455.33
2018-10-18T02:35:08.857Z,100456.82
2018-10-18T02:37:38.533Z,100454.63
2018-10-18T02:40:08.245Z,100454.64
2018-10-18T02:42:37.904Z,100455.34
2018-10-18T02:45:07.585Z,100461.41
2018-10-18T02:47:37.261Z,100463.11
2018-10-18T02:50:07.458Z,100468.83
2018-10-18T02:52:37.167Z,100471.36
2018-10-18T02:55:06.948Z,100469.31
2018-10-18T02:57:36.633Z,100475.20
2018-10-18T03:00:07.253Z,100474.84
2018-10-18T03:02:36.963Z,100475.67
2018-10-18T03:05:07.048Z,100476.03
2018-10-18T03:07:36.745Z,100477.02
2018-10-18T03:10:07.496Z,100472.63
2018-10-18T03:12:37.376Z,100473.49
2018-10-18T03:15:08.404Z,100481.03
2018-10-18T03:17:38.111Z,100478.34
2018-10-18T03:20:07.845Z,100481.91
2018-10-18T03:22:37.573Z,100486.23
2018-10-18T03:25:08.900Z,100485.23
2018-10-18T03:27:38.940Z,100485.42
2018-10-18T03:30:09.175Z,100498.34
2018-10-18T03:32:38.861Z,100500.20
2018-10-18T03:35:09.304Z,100499.54
2018-10-18T03:37:39.394Z,100504.40
2018-10-18T03:40:09.624Z,100504.05
2018-10-18T03:42:39.372Z,100502.17
2018-10-18T03:45:09.049Z,100501.02
2018-10-18T03:47:38.758Z,100498.69
2018-10-18T03:50:08.580Z,100499.86
2018-10-18T03:52:38.316Z,100501.53
2018-10-18T03:55:08.039Z,100499.66
2018-10-18T03:57:37.744Z,100505.23
2018-10-18T04:00:08.340Z,100499.36
2018-10-18T04:02:38.195Z,100503.75
2018-10-18T04:05:08.716Z,100504.59
2018-10-18T04:07:38.505Z,100503.41
2018-10-18T04:10:08.660Z,100508.44
2018-10-18T04:12:38.375Z,100512.64
2018-10-18T04:15:08.288Z,100512.97
2018-10-18T04:17:37.972Z,100511.77
2018-10-18T04:20:08.316Z,100514.78
2018-10-18T04:22:37.995Z,100517.11
2018-10-18T04:25:08.144Z,100512.07
2018-10-18T04:27:37.820Z,100515.11
2018-10-18T04:30:08.219Z,100513.97
2018-10-18T04:32:37.907Z,100514.61
2018-10-18T04:35:08.029Z,100519.61
2018-10-18T04:37:37.887Z,100521.13
2018-10-18T04:40:07.656Z,100519.95
2018-10-18T04:42:37.343Z,100519.63
2018-10-18T04:45:08.316Z,100524.68
2018-10-18T04:47:38.067Z,100524.16
2018-10-18T04:50:08.556Z,100524.68
2018-10-18T04:52:38.252Z,100533.22
2018-10-18T04:55:08.310Z,100524.63
2018-10-18T04:57:38.019Z,100528.70
2018-10-18T05:00:08.045Z,100535.62
2018-10-18T05:02:37.761Z,100541.47
2018-10-18T05:05:18.479Z,100540.12
2018-10-18T05:07:48.176Z,100540.31
2018-10-18T05:10:17.837Z,100545.33
2018-10-18T05:12:47.595Z,100541.30
2018-10-18T05:15:17.201Z,100545.33
2018-10-18T05:17:46.868Z,100550.52
2018-10-18T05:20:16.525Z,100549.36
2018-10-18T05:22:46.204Z,100547.02
2018-10-18T05:25:15.937Z,100553.73
2018-10-18T05:27:45.603Z,100561.31
2018-10-18T05:30:15.292Z,100564.99
2018-10-18T05:32:44.975Z,100569.67
2018-10-18T05:35:14.629Z,100563.80
2018-10-18T05:37:44.410Z,100571.52
2018-10-18T05:40:14.088Z,100572.70
2018-10-18T05:42:43.761Z,100576.88
2018-10-18T05:45:13.425Z,100571.34
2018-10-18T05:47:43.143Z,100579.58
2018-10-18T05:50:12.832Z,100575.75
2018-10-18T05:52:42.496Z,100575.42
2018-10-18T05:55:12.864Z,100573.41
2018-10-18T05:57:42.837Z,100570.56
2018-10-18T06:00:16.798Z,100574.12
2018-10-18T06:02:46.873Z,100576.28
2018-10-18T06:05:17.576Z,100579.96
2018-10-18T06:07:47.477Z,100588.68
2018-10-18T06:10:28.625Z,100586.00
2018-10-18T06:12:58.442Z,100588.84
2018-10-18T06:15:28.148Z,100587.55
2018-10-18T06:17:57.999Z,100588.06
2018-10-18T06:20:27.812Z,100592.45
2018-10-18T06:22:57.626Z,100591.58
2018-10-18T06:25:27.313Z,100598.66
2018-10-18T06:27:57.129Z,100594.15
2018-10-18T06:30:26.860Z,100592.14
2018-10-18T06:32:56.622Z,100593.97
2018-10-18T06:35:26.376Z,100595.66
2018-10-18T06:37:56.125Z,100593.47
2018-10-18T06:40:25.840Z,100591.33
2018-10-18T06:42:55.634Z,100594.19
2018-10-18T06:45:25.344Z,100593.02
2018-10-18T06:47:55.239Z,100592.19
2018-10-18T06:50:24.841Z,100601.08
2018-10-18T06:52:54.623Z,100593.84
2018-10-18T06:55:24.364Z,100596.59
2018-10-18T06:57:54.117Z,100599.77
2018-10-18T07:00:24.862Z,100597.25
2018-10-18T07:02:54.574Z,100603.98
2018-10-18T07:05:24.308Z,100600.30
2018-10-18T07:07:54.068Z,100599.95
2018-10-18T07:10:23.868Z,100601.64
2018-10-18T07:12:53.681Z,100606.55
2018-10-18T07:15:23.418Z,100607.22
2018-10-18T07:17:53.220Z,100605.39
2018-10-18T07:20:22.948Z,100603.70
2018-10-18T07:22:52.681Z,100609.92
2018-10-18T07:25:22.532Z,100609.92
2018-10-18T07:27:52.422Z,100617.16
2018-10-18T07:30:22.192Z,100625.23
2018-10-18T07:32:51.957Z,100632.65
2018-10-18T07:35:21.688Z,100633.83
2018-10-18T07:37:51.429Z,100635.36
2018-10-18T07:40:21.132Z,100635.70
2018-10-18T07:42:50.882Z,100634.52
2018-10-18T07:45:20.591Z,100632.84
2018-10-18T07:47:50.396Z,100639.39
2018-10-18T07:50:20.124Z,100639.91
2018-10-18T07:52:49.882Z,100637.75
2018-10-18T07:55:19.605Z,100638.23
2018-10-18T07:57:49.356Z,100646.30
2018-10-18T08:00:19.163Z,100642.61
2018-10-18T08:02:48.837Z,100649.50
2018-10-18T08:05:18.525Z,100652.54
2018-10-18T08:07:48.284Z,100649.85
2018-10-18T08:10:19.004Z,100650.20
2018-10-18T08:12:48.748Z,100650.34
2018-10-18T08:15:18.552Z,100652.54
2018-10-18T08:17:48.353Z,100647.81
2018-10-18T08:20:18.080Z,100652.02
2018-10-18T08:22:47.817Z,100660.27
2018-10-18T08:25:17.657Z,100658.77
2018-10-18T08:27:47.324Z,100661.62
2018-10-18T08:30:17.103Z,100661.95
2018-10-18T08:32:46.836Z,100660.74
2018-10-18T08:35:16.595Z,100655.70
2018-10-18T08:37:46.389Z,100660.26
2018-10-18T08:40:16.092Z,100667.83
2018-10-18T08:42:45.805Z,100662.48
2018-10-18T08:45:15.637Z,100668.70
2018-10-18T08:47:45.374Z,100675.82
2018-10-18T08:50:15.212Z,100683.23
2018-10-18T08:52:44.945Z,100675.19
2018-10-18T08:55:14.709Z,100685.30
2018-10-18T08:57:44.480Z,100682.61
2018-10-18T09:00:14.280Z,100684.27
2018-10-18T09:02:44.016Z,100681.58
2018-10-18T09:05:13.760Z,100678.53
2018-10-18T09:07:43.472Z,100678.53
2018-10-18T09:10:13.288Z,100677.34
2018-10-18T09:12:43.007Z,100685.63
2018-10-18T09:15:13.037Z,100676.86
2018-10-18T09:17:42.748Z,100674.50
2018-10-18T09:20:12.498Z,100678.37
2018-10-18T09:22:42.224Z,100676.68
2018-10-18T09:25:12.724Z,100674.99
2018-10-18T09:27:42.369Z,100673.98
2018-10-18T09:30:13.350Z,100672.29
2018-10-18T09:32:43.548Z,100673.31
2018-10-18T09:35:13.326Z,100667.22
2018-10-18T09:37:43.102Z,100675.80
2018-10-18T09:40:12.841Z,100674.78
2018-10-18T09:42:42.568Z,100665.14
2018-10-18T09:45:13.265Z,100671.81
2018-10-18T09:47:42.992Z,100673.71
2018-10-18T09:50:13.301Z,100675.84
2018-10-18T09:52:43.032Z,100676.91
2018-10-18T09:55:13.568Z,100679.58
2018-10-18T09:57:43.289Z,100684.19
2018-10-18T10:00:18.097Z,100684.16
2018-10-18T10:02:54.776Z,100679.19
2018-10-18T10:05:24.540Z,100673.01
2018-10-18T10:07:54.264Z,100676.59
2018-10-18T10:10:24.004Z,100677.50
2018-10-18T10:12:53.726Z,100677.63
2018-10-18T10:15:23.486Z,100683.57
2018-10-18T10:17:53.197Z,100680.54
2018-10-18T10:20:22.958Z,100678.61
2018-10-18T10:22:52.763Z,100672.02
2018-10-18T10:25:22.532Z,100667.09
2018-10-18T10:27:52.249Z,100664.19
2018-10-18T10:30:22.110Z,100676.34
2018-10-18T10:32:51.848Z,100670.94
2018-10-18T10:35:21.638Z,100677.17
2018-10-18T10:37:51.350Z,100680.78
2018-10-18T10:40:21.094Z,100675.98
2018-10-18T10:42:50.867Z,100680.89
2018-10-18T10:45:20.634Z,100674.55
2018-10-18T10:47:51.331Z,100679.95
2018-10-18T10:50:21.189Z,100680.84
2018-10-18T10:52:50.872Z,100683.91
2018-10-18T10:55:20.676Z,100676.40
2018-10-18T10:57:50.383Z,100681.25
2018-10-18T11:01:28.768Z,100682.50
2018-10-18T11:03:59.824Z,100678.94
2018-10-18T11:06:29.537Z,100677.52
2018-10-18T11:08:59.532Z,100663.44
2018-10-18T11:11:29.265Z,100665.27
2018-10-18T11:13:59.048Z,100668.45
2018-10-18T11:16:29.545Z,100662.80
2018-10-18T11:18:59.286Z,100669.16
2018-10-18T11:21:29.024Z,100665.23
2018-10-18T11:23:58.796Z,100668.02
2018-10-18T11:26:28.500Z,100669.56
2018-10-18T11:28:58.279Z,100669.30
2018-10-18T11:31:28.033Z,100675.38
2018-10-18T11:33:57.770Z,100675.75
2018-10-18T11:36:27.509Z,100677.86
2018-10-18T11:38:57.247Z,100674.55
2018-10-18T11:41:27.003Z,100673.88
2018-10-18T11:43:56.734Z,100680.87
2018-10-18T11:46:26.491Z,100677.13
2018-10-18T11:48:56.202Z,100683.42
2018-10-18T11:51:26.020Z,100680.02
2018-10-18T11:53:55.727Z,100680.29
2018-10-18T11:56:25.472Z,100677.25
2018-10-18T11:58:55.203Z,100677.81
2018-10-18T12:01:25.056Z,100673.62
2018-10-18T12:03:54.765Z,100668.29
2018-10-18T12:06:24.501Z,100674.55
2018-10-18T12:08:54.230Z,100668.17
2018-10-18T12:11:24.029Z,100673.23
2018-10-18T12:13:53.793Z,100668.05
2018-10-18T12:16:23.520Z,100669.03
2018-10-18T12:18:53.281Z,100670.14
2018-10-18T12:21:23.017Z,100669.84
2018-10-18T12:23:52.736Z,100669.31
2018-10-18T12:26:22.459Z,100672.91
2018-10-18T12:28:52.218Z,100673.14
2018-10-18T12:31:22.250Z,100678.72
2018-10-18T12:33:51.948Z,100686.66
2018-10-18T12:36:21.690Z,100677.55
2018-10-18T12:38:51.428Z,100677.23
2018-10-18T12:41:21.388Z,100677.55
2018-10-18T12:43:50.961Z,100677.34
2018-10-18T12:46:20.741Z,100680.20
2018-10-18T12:48:50.460Z,100683.33
2018-10-18T12:51:20.196Z,100679.44
2018-10-18T12:53:49.912Z,100676.83
2018-10-18T12:56:19.691Z,100675.29
2018-10-18T12:58:49.381Z,100677.31
2018-10-18T13:01:19.116Z,100682.14
2018-10-18T13:03:48.815Z,100681.67
2018-10-18T13:06:18.553Z,100678.27
2018-10-18T13:08:48.272Z,100681.00
2018-10-18T13:11:18.010Z,100678.75
2018-10-18T13:13:47.753Z,100686.85
2018-10-18T13:16:17.494Z,100692.38
2018-10-18T13:18:47.272Z,100688.73
2018-10-18T13:21:17.004Z,100690.38
2018-10-18T13:23:46.702Z,100694.09
2018-10-18T13:26:16.532Z,100692.38
2018-10-18T13:28:46.217Z,100692.83
2018-10-18T13:31:15.980Z,100696.84
2018-10-18T13:33:46.191Z,100695.03
2018-10-18T13:36:16.012Z,100701.94
2018-10-18T13:38:45.741Z,100704.03
2018-10-18T13:41:15.493Z,100702.34
2018-10-18T13:43:45.220Z,100699.83
2018-10-18T13:46:15.001Z,100693.45
2018-10-18T13:48:44.880Z,100696.22
2018-10-18T13:51:14.700Z,100701.65
2018-10-18T13:53:44.396Z,100694.96
2018-10-18T13:56:14.656Z,100694.28
2018-10-18T13:58:44.400Z,100693.66
2018-10-18T14:01:14.160Z,100690.32
2018-10-18T14:03:43.886Z,100694.23
2018-10-18T14:06:13.698Z,100688.50
2018-10-18T14:08:43.919Z,100684.97
2018-10-18T14:11:14.353Z,100680.20
2018-10-18T14:13:44.570Z,100671.43
2018-10-18T14:16:14.704Z,100678.92
2018-10-18T14:18:44.444Z,100675.68
2018-10-18T14:21:14.279Z,100680.92
2018-10-18T14:23:43.988Z,100680.22
2018-10-18T14:26:13.904Z,100678.38
2018-10-18T14:28:43.536Z,100675.84
2018-10-18T14:31:13.315Z,100675.84
2018-10-18T14:33:43.024Z,100674.64
2018-10-18T14:36:12.746Z,100677.19
2018-10-18T14:38:42.546Z,100675.50
2018-10-18T14:41:12.272Z,100679.73
2018-10-18T14:43:42.017Z,100686.14
2018-10-18T14:46:11.785Z,100672.86
2018-10-18T14:48:41.485Z,100683.18
2018-10-18T14:51:11.269Z,100675.23
2018-10-18T14:53:40.968Z,100683.64
2018-10-18T14:56:10.734Z,100682.14
2018-10-18T14:58:40.460Z,100679.28
2018-10-18T15:01:10.265Z,100675.97
2018-10-18T15:03:40.088Z,100677.78
2018-10-18T15:06:09.857Z,100678.16
2018-10-18T15:08:39.603Z,100684.72
2018-10-18T15:11:09.376Z,100677.31
2018-10-18T15:13:39.136Z,100682.37
2018-10-18T15:16:08.881Z,100683.38
2018-10-18T15:18:38.604Z,100681.88
2018-10-18T15:21:08.412Z,100682.53
2018-10-18T15:23:38.144Z,100678.66
2018-10-18T15:26:07.941Z,100678.70
2018-10-18T15:28:37.620Z,100671.78
2018-10-18T15:31:07.412Z,100675.48
2018-10-18T15:33:37.152Z,100677.36
2018-10-18T15:36:06.959Z,100683.06
2018-10-18T15:38:36.859Z,100677.87
2018-10-18T15:41:06.573Z,100680.05
2018-10-18T15:43:36.284Z,100684.11
2018-10-18T15:46:06.243Z,100683.46
2018-10-18T15:48:36.033Z,100687.51
2018-10-18T15:51:05.904Z,100687.33
2018-10-18T15:53:35.684Z,100689.20
2018-10-18T15:56:05.429Z,100687.31
2018-10-18T15:58:35.129Z,100686.45
2018-10-18T16:01:04.932Z,100690.68
2018-10-18T16:03:34.676Z,100686.15
2018-10-18T16:06:04.513Z,100692.37
2018-10-18T16:08:34.324Z,100689.87
2018-10-18T16:11:04.137Z,100693.73
2018-10-18T16:13:34.496Z,100693.58
2018-10-18T16:16:04.272Z,100697.81
2018-10-18T16:18:34.015Z,100693.09
2018-10-18T16:21:04.148Z,100699.00
2018-10-18T16:23:34.276Z,100700.34
2018-10-18T16:26:04.093Z,100707.58
2018-10-18T16:28:33.788Z,100709.62
2018-10-18T16:31:03.664Z,100710.31
2018-10-18T16:33:33.434Z,100711.14
2018-10-18T16:36:03.156Z,100719.89
2018-10-18T16:38:32.932Z,100719.89
2018-10-18T16:41:02.848Z,100730.33
2018-10-18T16:43:32.752Z,100728.48
2018-10-18T16:46:02.513Z,100729.52
2018-10-18T16:48:32.338Z,100736.95
2018-10-18T16:51:02.179Z,100737.43
2018-10-18T16:53:31.950Z,100736.26
2018-10-18T16:56:01.754Z,100739.81
2018-10-18T16:58:31.885Z,100737.12
2018-10-18T17:01:01.672Z,100739.28
2018-10-18T17:03:31.376Z,100741.47
2018-10-18T17:06:01.163Z,100745.53
2018-10-18T17:08:31.308Z,100740.30
2018-10-18T17:11:01.095Z,100744.01
2018-10-18T17:13:30.924Z,100745.70
2018-10-18T17:16:00.767Z,100747.05
2018-10-18T17:18:30.498Z,100741.66
2018-10-18T17:21:00.360Z,100752.27
2018-10-18T17:23:31.043Z,100753.78
2018-10-18T17:26:00.890Z,100755.81
2018-10-18T17:28:30.624Z,100758.66
2018-10-18T17:31:00.516Z,100762.71
2018-10-18T17:33:30.293Z,100767.78
2018-10-18T17:36:00.120Z,100768.96
2018-10-18T17:38:29.838Z,100770.97
2018-10-18T17:40:59.681Z,100769.80
2018-10-18T17:43:29.412Z,100780.41
2018-10-18T17:45:59.184Z,100778.71
2018-10-18T17:48:29.333Z,100776.84
2018-10-18T17:50:59.348Z,100783.09
2018-10-18T17:53:29.065Z,100786.31
2018-10-18T17:55:58.861Z,100783.61
2018-10-18T17:58:28.608Z,100787.28
2018-10-18T18:00:58.345Z,100785.28
2018-10-18T18:03:28.128Z,100789.98
2018-10-18T18:05:57.921Z,100791.15
2018-10-18T18:08:27.593Z,100795.53
2018-10-18T18:10:57.444Z,100791.32
2018-10-18T18:13:27.235Z,100795.70
2018-10-18T18:15:56.998Z,100805.48
2018-10-18T18:18:26.742Z,100807.83
2018-10-18T18:20:56.466Z,100806.65
2018-10-18T18:23:26.172Z,100801.92
2018-10-18T18:25:55.928Z,100809.65
2018-10-18T18:28:25.600Z,100809.66
2018-10-18T18:30:55.311Z,100814.86
2018-10-18T18:33:24.964Z,100812.67
2018-10-18T18:35:54.611Z,100810.46
2018-10-18T18:38:24.300Z,100811.67
2018-10-18T18:40:53.954Z,100815.50
2018-10-18T18:43:23.616Z,100814.84
2018-10-18T18:45:53.310Z,100820.70
2018-10-18T18:48:22.952Z,100822.03
2018-10-18T18:50:52.615Z,100823.52
2018-10-18T18:53:22.354Z,100820.48
2018-10-18T18:55:51.984Z,100831.92
2018-10-18T18:58:21.627Z,100827.83
2018-10-18T19:00:51.355Z,100830.34
2018-10-18T19:03:21.011Z,100837.06
2018-10-18T19:05:50.685Z,100841.62
2018-10-18T19:08:20.409Z,100846.00
2018-10-18T19:10:50.964Z,100843.31
2018-10-18T19:13:20.723Z,100850.67
2018-10-18T19:15:50.373Z,100859.38
2018-10-18T19:18:20.059Z,100858.91
2018-10-18T19:20:49.780Z,100854.86
2018-10-18T19:23:19.466Z,100865.13
2018-10-18T19:25:49.178Z,100867.98
2018-10-18T19:28:18.884Z,100864.27
2018-10-18T19:30:48.676Z,100872.16
2018-10-18T19:33:18.384Z,100868.95
2018-10-18T19:35:48.220Z,100870.12
2018-10-18T19:38:17.912Z,100881.72
2018-10-18T19:40:47.645Z,100879.84
2018-10-18T19:43:17.320Z,100876.80
2018-10-18T19:45:47.048Z,100869.89
2018-10-18T19:48:16.895Z,100872.77
2018-10-18T19:50:46.541Z,100874.61
2018-10-18T19:53:16.244Z,100869.53
2018-10-18T19:55:45.897Z,100874.72
2018-10-18T19:58:15.664Z,100880.77
2018-10-18T20:00:45.313Z,100885.80
2018-10-18T20:03:15.010Z,100891.51
2018-10-18T20:05:44.669Z,100891.27
2018-10-18T20:08:14.445Z,100880.67
2018-10-18T20:10:44.092Z,100883.63
2018-10-18T20:13:13.764Z,100895.03
2018-10-18T20:15:43.456Z,100896.25
2018-10-18T20:18:13.265Z,100897.06
2018-10-18T20:20:42.804Z,100902.02
2018-10-18T20:23:12.529Z,100900.89
2018-10-18T20:25:42.294Z,100902.39
2018-10-18T20:28:11.904Z,100895.83
2018-10-18T20:30:41.718Z,100892.80
2018-10-18T20:33:11.614Z,100894.30
2018-10-18T20:35:41.432Z,100901.42
2018-10-18T20:38:11.021Z,100901.26
2018-10-18T20:40:40.696Z,100900.87
2018-10-18T20:43:10.413Z,100902.34
2018-10-18T20:45:40.073Z,100895.26
2018-10-18T20:48:09.878Z,100890.84
2018-10-18T20:50:39.497Z,100895.89
2018-10-18T20:53:09.244Z,100898.38
2018-10-18T20:55:38.896Z,100897.31
2018-10-18T20:58:08.624Z,100897.98
2018-10-18T21:00:38.328Z,100901.98
2018-10-18T21:03:07.997Z,100903.43
2018-10-18T21:05:37.723Z,100900.75
2018-10-18T21:08:07.540Z,100903.23
2018-10-18T21:10:37.260Z,100903.28
2018-10-18T21:13:07.246Z,100901.94
2018-10-18T21:15:36.928Z,100899.56
2018-10-18T21:18:06.674Z,100900.91
2018-10-18T21:20:36.336Z,100903.43
2018-10-18T21:23:06.589Z,100902.17
2018-10-18T21:25:36.304Z,100891.94
2018-10-18T21:28:06.003Z,100905.37
2018-10-18T21:30:35.785Z,100896.08
2018-10-18T21:33:05.730Z,100894.19
2018-10-18T21:35:35.453Z,100901.88
2018-10-18T21:38:05.160Z,100901.48
2018-10-18T21:40:34.897Z,100900.14
2018-10-18T21:43:04.646Z,100904.67
2018-10-18T21:45:34.503Z,100903.69
2018-10-18T21:48:04.401Z,100906.65
2018-10-18T21:50:34.068Z,100913.26
2018-10-18T21:53:03.763Z,100912.75
2018-10-18T21:55:33.485Z,100917.97
2018-10-18T21:58:03.363Z,100921.97
2018-10-18T22:00:37.184Z,100911.03
2018-10-18T22:03:06.894Z,100905.97
2018-10-18T22:05:36.551Z,100919.03
2018-10-18T22:08:06.565Z,100918.12
2018-10-18T22:10:36.265Z,100913.86
2018-10-18T22:13:05.952Z,100914.47
2018-10-18T22:15:35.665Z,100914.65
2018-10-18T22:18:05.606Z,100921.00
2018-10-18T22:20:35.332Z,100917.33
2018-10-18T22:23:05.174Z,100921.36
2018-10-18T22:25:34.796Z,100921.41
2018-10-18T22:28:04.528Z,100926.14
2018-10-18T22:30:34.196Z,100922.02
2018-10-18T22:33:03.898Z,100924.75
2018-10-18T22:35:33.808Z,100919.34
2018-10-18T22:38:03.497Z,100920.12
2018-10-18T22:40:33.199Z,100926.67
2018-10-18T22:43:02.895Z,100925.80
2018-10-18T22:45:32.656Z,100927.77
2018-10-18T22:48:02.369Z,100922.65
2018-10-18T22:50:32.053Z,100924.91
2018-10-18T22:53:01.746Z,100926.52
2018-10-18T22:55:31.450Z,100925.59
2018-10-18T22:58:01.101Z,100923.84
2018-10-18T23:00:30.746Z,100922.50
2018-10-18T23:03:00.466Z,100924.83
2018-10-18T23:05:30.108Z,100926.02
2018-10-18T23:07:59.781Z,100925.84
2018-10-18T23:10:29.513Z,100922.95
2018-10-18T23:12:59.164Z,100926.27
2018-10-18T23:15:28.875Z,100930.85
2018-10-18T23:17:58.605Z,100927.25
2018-10-18T23:20:28.276Z,100927.20
2018-10-18T23:22:57.944Z,100932.57
2018-10-18T23:25:27.696Z,100922.14
2018-10-18T23:27:57.356Z,100923.86
2018-10-18T23:30:27.064Z,100920.34
2018-10-18T23:32:56.821Z,100914.27
2018-10-18T23:35:26.478Z,100915.13
2018-10-18T23:37:56.182Z,100917.75
2018-10-18T23:40:25.870Z,100922.24
2018-10-18T23:42:55.522Z,100920.91
2018-10-18T23:45:25.233Z,100923.75
2018-10-18T23:47:54.891Z,100919.52
2018-10-18T23:50:24.555Z,100918.69
2018-10-18T23:52:54.253Z,100921.94
2018-10-18T23:55:23.916Z,100918.48
2018-10-18T23:57:53.573Z,100920.30
